createdAt,value
2023-12-10T00:01:44.000Z,94710.31
2023-12-10T00:04:10.704Z,94719.84
2023-12-10T00:06:37.419Z,94728.94
2023-12-10T00:09:04.028Z,94738.66
2023-12-10T00:11:30.604Z,94741.03
2023-12-10T00:13:57.184Z,94728.56
2023-12-10T00:16:23.740Z,94743.16
2023-12-10T00:18:50.447Z,94740.53
2023-12-10T00:21:17.085Z,94744.22
2023-12-10T00:23:43.793Z,94737.94
2023-12-10T00:26:10.396Z,94739.69
2023-12-10T00:28:37.429Z,94738.38
2023-12-10T00:31:09.019Z,94761.41
2023-12-10T00:33:35.871Z,94764.78
2023-12-10T00:36:02.729Z,94772.41
2023-12-10T00:38:29.250Z,94772.63
2023-12-10T00:40:55.911Z,94787.00
2023-12-10T00:43:22.511Z,94790.38
2023-12-10T00:45:49.368Z,94801.81
2023-12-10T00:48:16.102Z,94803.63
2023-12-10T00:50:42.921Z,94808.41
2023-12-10T00:53:09.455Z,94813.56
2023-12-10T00:55:36.014Z,94816.44
2023-12-10T00:58:02.598Z,94818.31
2023-12-10T01:00:29.217Z,94828.72
2023-12-10T01:02:57.525Z,94833.22
2023-12-10T01:05:24.184Z,94838.22
2023-12-10T01:07:50.782Z,94837.97
2023-12-10T01:10:17.530Z,94864.84
2023-12-10T01:12:44.086Z,94862.28
2023-12-10T01:15:11.630Z,94871.16
2023-12-10T01:17:38.275Z,94880.09
2023-12-10T01:20:05.266Z,94873.34
2023-12-10T01:22:31.924Z,94887.91
2023-12-10T01:24:59.905Z,94894.78
2023-12-10T01:27:26.972Z,94908.13
2023-12-10T01:29:53.805Z,94925.59
2023-12-10T01:32:21.836Z,94950.47
2023-12-10T01:34:48.654Z,94948.09
2023-12-10T01:37:15.323Z,94959.88
2023-12-10T01:39:42.008Z,94964.34
2023-12-10T01:42:09.310Z,94973.25
2023-12-10T01:44:35.917Z,94998.31
2023-12-10T01:47:03.382Z,94999.66
2023-12-10T01:49:30.375Z,95003.06
2023-12-10T01:51:57.391Z,95018.75
2023-12-10T01:54:26.010Z,95017.66
2023-12-10T01:57:00.237Z,95020.81
2023-12-10T01:59:33.506Z,95037.28
2023-12-10T02:02:00.585Z,95053.50
2023-12-10T02:04:27.986Z,95060.03
2023-12-10T02:06:54.952Z,95045.16
2023-12-10T02:09:21.814Z,95038.59
2023-12-10T02:11:48.512Z,95046.72
2023-12-10T02:14:15.245Z,95055.63
2023-12-10T02:16:41.948Z,95065.25
2023-12-10T02:19:09.007Z,95061.09
2023-12-10T02:21:35.796Z,95061.63
2023-12-10T02:24:05.721Z,95075.75
2023-12-10T02:26:32.889Z,95070.50
2023-12-10T02:28:59.640Z,95081.22
2023-12-10T02:31:26.944Z,95088.28
2023-12-10T02:33:53.601Z,95091.94
2023-12-10T02:36:20.286Z,95094.31
2023-12-10T02:38:49.233Z,95120.16
2023-12-10T02:41:16.432Z,95125.16
2023-12-10T02:43:43.039Z,95125.41
2023-12-10T02:46:09.625Z,95122.78
2023-12-10T02:48:36.222Z,95134.81
2023-12-10T02:51:02.897Z,95133.25
2023-12-10T02:53:29.413Z,95140.03
2023-12-10T02:55:58.577Z,95121.72
2023-12-10T02:58:25.123Z,95135.84
2023-12-10T03:00:51.788Z,95141.59
2023-12-10T03:03:18.431Z,95155.19
2023-12-10T03:05:44.954Z,95149.41
2023-12-10T03:08:11.489Z,95164.03
2023-12-10T03:10:38.018Z,95168.22
2023-12-10T03:13:04.658Z,95160.41
2023-12-10T03:15:31.264Z,95162.75
2023-12-10T03:17:57.941Z,95168.47
2023-12-10T03:20:25.330Z,95173.97
2023-12-10T03:22:51.893Z,95173.44
2023-12-10T03:25:18.434Z,95185.97
2023-12-10T03:27:45.272Z,95183.09
2023-12-10T03:30:12.336Z,95193.28
2023-12-10T03:32:38.829Z,95185.97
2023-12-10T03:35:05.622Z,95202.16
2023-12-10T03:37:32.191Z,95202.44
2023-12-10T03:39:58.764Z,95208.13
2023-12-10T03:42:25.439Z,95206.84
2023-12-10T03:44:52.012Z,95218.06
2023-12-10T03:47:18.530Z,95220.16
2023-12-10T03:49:45.201Z,95227.72
2023-12-10T03:52:11.994Z,95222.75
2023-12-10T03:54:38.623Z,95222.53
2023-12-10T03:57:05.359Z,95218.88
2023-12-10T03:59:32.146Z,95223.31
2023-12-10T04:01:58.681Z,95238.44
2023-12-10T04:04:25.350Z,95226.94
2023-12-10T04:06:52.100Z,95249.69
2023-12-10T04:09:18.815Z,95244.72
2023-12-10T04:11:45.442Z,95230.38
2023-12-10T04:14:12.053Z,95229.06
2023-12-10T04:16:39.650Z,95218.88
2023-12-10T04:19:06.693Z,95221.50
2023-12-10T04:21:33.351Z,95238.19
2023-12-10T04:23:59.995Z,95241.63
2023-12-10T04:26:27.615Z,95249.19
2023-12-10T04:28:54.166Z,95254.66
2023-12-10T04:31:20.748Z,95265.94
2023-12-10T04:33:47.490Z,95283.69
2023-12-10T04:36:14.912Z,95281.06
2023-12-10T04:38:41.838Z,95286.81
2023-12-10T04:41:08.449Z,95285.81
2023-12-10T04:43:34.935Z,95283.69
2023-12-10T04:46:01.538Z,95293.91
2023-12-10T04:48:28.307Z,95285.53
2023-12-10T04:50:55.069Z,95296.22
2023-12-10T04:53:21.628Z,95297.28
2023-12-10T04:55:48.200Z,95308.00
2023-12-10T04:58:14.880Z,95291.00
2023-12-10T05:00:42.191Z,95311.09
2023-12-10T05:03:08.953Z,95305.38
2023-12-10T05:05:35.563Z,95311.09
2023-12-10T05:08:02.174Z,95322.59
2023-12-10T05:10:31.813Z,95330.13
2023-12-10T05:12:59.279Z,95336.94
2023-12-10T05:15:25.972Z,95333.28
2023-12-10T05:17:52.756Z,95335.41
2023-12-10T05:20:19.397Z,95339.06
2023-12-10T05:22:46.009Z,95353.94
2023-12-10T05:25:12.738Z,95355.03
2023-12-10T05:27:39.322Z,95350.56
2023-12-10T05:30:06.609Z,95356.53
2023-12-10T05:32:33.319Z,95354.69
2023-12-10T05:34:59.907Z,95360.94
2023-12-10T05:37:26.410Z,95378.69
2023-12-10T05:39:52.979Z,95377.66
2023-12-10T05:42:19.572Z,95385.78
2023-12-10T05:44:46.254Z,95392.31
2023-12-10T05:47:12.792Z,95397.00
2023-12-10T05:49:39.477Z,95404.59
2023-12-10T05:52:06.632Z,95400.97
2023-12-10T05:54:33.240Z,95419.78
2023-12-10T05:57:00.078Z,95413.25
2023-12-10T05:59:26.621Z,95412.16
2023-12-10T06:01:53.214Z,95424.19
2023-12-10T06:04:19.847Z,95427.06
2023-12-10T06:06:47.130Z,95406.63
2023-12-10T06:09:15.377Z,95438.38
2023-12-10T06:11:42.047Z,95439.38
2023-12-10T06:14:08.634Z,95454.00
2023-12-10T06:16:35.203Z,95436.97
2023-12-10T06:19:01.795Z,95435.22
2023-12-10T06:21:28.557Z,95446.00
2023-12-10T06:23:55.185Z,95456.91
2023-12-10T06:26:22.279Z,95456.16
2023-12-10T06:28:48.947Z,95458.78
2023-12-10T06:31:15.470Z,95458.72
2023-12-10T06:33:45.936Z,95460.25
2023-12-10T06:36:12.671Z,95458.69
2023-12-10T06:38:39.255Z,95473.94
2023-12-10T06:41:07.017Z,95480.22
2023-12-10T06:43:33.581Z,95485.94
2023-12-10T06:46:01.259Z,95487.00
2023-12-10T06:48:28.109Z,95476.81
2023-12-10T06:50:54.840Z,95484.19
2023-12-10T06:53:21.513Z,95497.00
2023-12-10T06:55:48.088Z,95491.72
2023-12-10T06:58:14.686Z,95505.53
2023-12-10T07:00:41.385Z,95510.75
2023-12-10T07:03:08.283Z,95514.75
2023-12-10T07:05:35.292Z,95513.44
2023-12-10T07:08:02.621Z,95512.09
2023-12-10T07:10:29.195Z,95519.19
2023-12-10T07:12:55.953Z,95518.69
2023-12-10T07:15:22.908Z,95520.75
2023-12-10T07:17:49.792Z,95525.78
2023-12-10T07:20:16.655Z,95532.31
2023-12-10T07:22:43.420Z,95545.63
2023-12-10T07:25:10.308Z,95548.22
2023-12-10T07:27:36.937Z,95552.72
2023-12-10T07:30:04.071Z,95546.16
2023-12-10T07:32:30.849Z,95551.44
2023-12-10T07:34:57.642Z,95555.88
2023-12-10T07:37:24.201Z,95568.38
2023-12-10T07:39:50.835Z,95572.38
2023-12-10T07:42:17.904Z,95579.09
2023-12-10T07:44:44.894Z,95577.81
2023-12-10T07:47:13.337Z,95572.53
2023-12-10T07:49:40.396Z,95582.53
2023-12-10T07:52:07.689Z,95589.63
2023-12-10T07:54:34.279Z,95590.91
2023-12-10T07:57:00.823Z,95595.34
2023-12-10T07:59:27.370Z,95602.97
2023-12-10T08:01:54.033Z,95595.38
2023-12-10T08:04:20.638Z,95591.16
2023-12-10T08:06:47.459Z,95592.53
2023-12-10T08:09:14.236Z,95599.56
2023-12-10T08:11:40.835Z,95606.41
2023-12-10T08:14:07.512Z,95609.81
2023-12-10T08:16:37.161Z,95627.28
2023-12-10T08:19:05.471Z,95623.63
2023-12-10T08:21:32.559Z,95637.72
2023-12-10T08:23:59.254Z,95644.09
2023-12-10T08:26:25.975Z,95642.22
2023-12-10T08:28:53.600Z,95654.06
2023-12-10T08:31:20.121Z,95654.53
2023-12-10T08:33:48.340Z,95678.41
2023-12-10T08:36:15.165Z,95672.34
2023-12-10T08:38:41.916Z,95682.78
2023-12-10T08:41:09.672Z,95684.25
2023-12-10T08:43:36.672Z,95694.75
2023-12-10T08:46:03.636Z,95691.69
2023-12-10T08:48:31.510Z,95700.56
2023-12-10T08:50:58.269Z,95700.22
2023-12-10T08:53:24.878Z,95701.81
2023-12-10T08:55:51.459Z,95702.56
2023-12-10T08:58:18.039Z,95708.28
2023-12-10T09:00:44.932Z,95707.66
2023-12-10T09:03:12.282Z,95706.91
2023-12-10T09:05:39.102Z,95707.13
2023-12-10T09:08:07.781Z,95692.19
2023-12-10T09:10:35.187Z,95709.22
2023-12-10T09:13:02.034Z,95709.16
2023-12-10T09:15:28.808Z,95712.50
2023-12-10T09:17:55.590Z,95711.31
2023-12-10T09:20:22.383Z,95711.78
2023-12-10T09:22:49.018Z,95708.69
2023-12-10T09:25:16.056Z,95719.94
2023-12-10T09:27:42.758Z,95715.06
2023-12-10T09:30:09.955Z,95716.94
2023-12-10T09:32:36.661Z,95712.00
2023-12-10T09:35:05.473Z,95712.84
2023-12-10T09:37:32.354Z,95717.03
2023-12-10T09:39:59.136Z,95713.63
2023-12-10T09:42:25.799Z,95718.91
2023-12-10T09:44:52.498Z,95725.22
2023-12-10T09:47:21.120Z,95723.91
2023-12-10T09:49:47.817Z,95722.56
2023-12-10T09:52:14.430Z,95729.94
2023-12-10T09:54:42.324Z,95732.34
2023-12-10T09:57:09.312Z,95726.31
2023-12-10T09:59:36.844Z,95729.50
2023-12-10T10:02:05.361Z,95729.72
2023-12-10T10:04:32.038Z,95732.91
2023-12-10T10:06:58.935Z,95726.88
2023-12-10T10:09:32.771Z,95727.63
2023-12-10T10:12:04.487Z,95722.91
2023-12-10T10:14:31.170Z,95728.94
2023-12-10T10:16:57.919Z,95731.31
2023-12-10T10:19:27.194Z,95716.97
2023-12-10T10:21:55.300Z,95717.72
2023-12-10T10:24:23.088Z,95719.06
2023-12-10T10:26:50.244Z,95714.06
2023-12-10T10:29:17.056Z,95713.88
2023-12-10T10:31:45.530Z,95715.22
2023-12-10T10:34:14.111Z,95719.91
2023-12-10T10:36:41.835Z,95723.31
2023-12-10T10:39:09.035Z,95736.16
2023-12-10T10:41:37.475Z,95725.22
2023-12-10T10:44:04.060Z,95723.63
2023-12-10T10:46:31.314Z,95738.31
2023-12-10T10:48:59.981Z,95745.91
2023-12-10T10:51:30.974Z,95755.56
2023-12-10T10:53:59.694Z,95755.84
2023-12-10T10:56:27.089Z,95748.78
2023-12-10T10:58:53.768Z,95736.50
2023-12-10T11:01:40.519Z,95733.31
2023-12-10T11:04:13.117Z,95733.88
2023-12-10T11:06:42.510Z,95730.50
2023-12-10T11:09:09.773Z,95736.81
2023-12-10T11:11:40.753Z,95717.16
2023-12-10T11:14:24.153Z,95725.53
2023-12-10T11:17:02.780Z,95728.97
2023-12-10T11:19:30.120Z,95726.34
2023-12-10T11:21:57.006Z,95724.50
2023-12-10T11:24:24.301Z,95727.38
2023-12-10T11:26:51.263Z,95725.03
2023-12-10T11:29:17.993Z,95720.56
2023-12-10T11:31:47.496Z,95721.34
2023-12-10T11:34:14.645Z,95714.56
2023-12-10T11:36:47.563Z,95711.66
2023-12-10T11:39:17.410Z,95718.47
2023-12-10T11:41:55.632Z,95719.78
2023-12-10T11:44:26.894Z,95742.38
2023-12-10T11:46:55.831Z,95731.88
2023-12-10T11:49:24.555Z,95733.94
2023-12-10T11:51:51.178Z,95736.31
2023-12-10T11:54:18.966Z,95731.56
2023-12-10T11:56:45.704Z,95730.00
2023-12-10T11:59:13.155Z,95737.63
2023-12-10T12:01:40.835Z,95735.00
2023-12-10T12:04:08.085Z,95734.97
2023-12-10T12:06:42.763Z,95733.94
2023-12-10T12:09:14.317Z,95730.28
2023-12-10T12:11:41.149Z,95731.59
2023-12-10T12:14:14.560Z,95733.41
2023-12-10T12:16:41.123Z,95742.06
2023-12-10T12:19:07.791Z,95741.78
2023-12-10T12:21:34.468Z,95740.25
2023-12-10T12:24:01.135Z,95740.75
2023-12-10T12:26:27.737Z,95717.16
2023-12-10T12:28:54.273Z,95741.53
2023-12-10T12:31:20.865Z,95752.28
2023-12-10T12:33:49.279Z,95750.69
2023-12-10T12:36:16.037Z,95742.59
2023-12-10T12:38:45.243Z,95751.47
2023-12-10T12:41:11.880Z,95745.22
2023-12-10T12:43:38.383Z,95739.69
2023-12-10T12:46:05.571Z,95737.06
2023-12-10T12:48:32.272Z,95736.03
2023-12-10T12:50:58.937Z,95734.44
2023-12-10T12:53:25.465Z,95734.44
2023-12-10T12:55:52.063Z,95733.41
2023-12-10T12:58:18.743Z,95732.31
2023-12-10T13:00:45.470Z,95739.94
2023-12-10T13:03:12.106Z,95731.81
2023-12-10T13:05:38.724Z,95733.94
2023-12-10T13:08:05.515Z,95736.00
2023-12-10T13:10:32.219Z,95727.09
2023-12-10T13:12:58.788Z,95733.66
2023-12-10T13:15:25.388Z,95726.03
2023-12-10T13:17:52.029Z,95714.22
2023-12-10T13:20:19.521Z,95703.72
2023-12-10T13:22:46.063Z,95720.75
2023-12-10T13:25:12.758Z,95714.47
2023-12-10T13:27:39.417Z,95721.84
2023-12-10T13:30:06.579Z,95708.44
2023-12-10T13:32:35.252Z,95723.41
2023-12-10T13:35:02.008Z,95715.56
2023-12-10T13:37:28.839Z,95738.38
2023-12-10T13:39:55.682Z,95736.00
2023-12-10T13:42:22.378Z,95738.34
2023-12-10T13:44:48.973Z,95733.88
2023-12-10T13:47:15.614Z,95725.50
2023-12-10T13:49:42.536Z,95726.53
2023-12-10T13:52:09.826Z,95733.34
2023-12-10T13:54:36.692Z,95742.22
2023-12-10T13:57:03.366Z,95738.56
2023-12-10T13:59:29.931Z,95732.03
2023-12-10T14:01:56.532Z,95738.56
2023-12-10T14:04:23.529Z,95734.88
2023-12-10T14:06:50.278Z,95713.59
2023-12-10T14:09:16.850Z,95729.38
2023-12-10T14:11:44.584Z,95726.50
2023-12-10T14:14:14.857Z,95725.97
2023-12-10T14:16:43.849Z,95720.19
2023-12-10T14:19:11.005Z,95729.38
2023-12-10T14:21:37.767Z,95729.34
2023-12-10T14:24:05.469Z,95723.88
2023-12-10T14:26:32.232Z,95719.66
2023-12-10T14:28:59.437Z,95713.06
2023-12-10T14:31:27.563Z,95725.13
2023-12-10T14:33:55.134Z,95724.63
2023-12-10T14:36:21.905Z,95713.88
2023-12-10T14:38:48.515Z,95721.97
2023-12-10T14:41:15.174Z,95713.06
2023-12-10T14:43:41.704Z,95701.50
2023-12-10T14:46:08.933Z,95723.22
2023-12-10T14:48:35.763Z,95713.25
2023-12-10T14:51:02.652Z,95706.97
2023-12-10T14:53:29.380Z,95704.09
2023-12-10T14:55:56.180Z,95709.28
2023-12-10T14:58:22.794Z,95701.69
2023-12-10T15:00:49.590Z,95705.34
2023-12-10T15:03:19.780Z,95699.06
2023-12-10T15:05:50.073Z,95704.28
2023-12-10T15:08:20.286Z,95704.22
2023-12-10T15:10:47.666Z,95711.84
2023-12-10T15:13:15.402Z,95706.84
2023-12-10T15:15:42.361Z,95704.75
2023-12-10T15:18:09.145Z,95701.00
2023-12-10T15:20:35.748Z,95691.31
2023-12-10T15:23:02.317Z,95697.81
2023-12-10T15:25:28.900Z,95696.59
2023-12-10T15:27:59.737Z,95687.63
2023-12-10T15:30:31.048Z,95681.56
2023-12-10T15:33:00.679Z,95682.09
2023-12-10T15:35:29.450Z,95678.72
2023-12-10T15:37:56.146Z,95659.81
2023-12-10T15:40:23.960Z,95673.16
2023-12-10T15:42:50.758Z,95662.13
2023-12-10T15:45:18.684Z,95661.91
2023-12-10T15:47:46.028Z,95648.03
2023-12-10T15:50:12.859Z,95656.00
2023-12-10T15:52:41.151Z,95652.03
2023-12-10T15:55:09.183Z,95654.38
2023-12-10T15:57:36.135Z,95650.94
2023-12-10T16:00:05.724Z,95657.22
2023-12-10T16:02:39.469Z,95656.91
2023-12-10T16:05:06.670Z,95655.84
2023-12-10T16:07:41.302Z,95662.63
2023-12-10T16:10:15.613Z,95638.22
2023-12-10T16:12:42.287Z,95647.16
2023-12-10T16:15:09.284Z,95644.50
2023-12-10T16:17:35.882Z,95646.44
2023-12-10T16:20:02.529Z,95654.81
2023-12-10T16:22:29.548Z,95639.03
2023-12-10T16:24:56.487Z,95630.66
2023-12-10T16:27:23.697Z,95630.72
2023-12-10T16:29:50.356Z,95632.91
2023-12-10T16:32:16.915Z,95630.56
2023-12-10T16:34:43.887Z,95640.75
2023-12-10T16:37:10.717Z,95633.19
2023-12-10T16:39:37.297Z,95621.09
2023-12-10T16:42:04.091Z,95608.75
2023-12-10T16:44:30.987Z,95614.25
2023-12-10T16:46:59.117Z,95618.66
2023-12-10T16:49:28.606Z,95614.19
2023-12-10T16:51:55.435Z,95607.59
2023-12-10T16:54:22.332Z,95600.53
2023-12-10T16:56:49.208Z,95602.38
2023-12-10T16:59:16.884Z,95594.28
2023-12-10T17:01:43.925Z,95586.19
2023-12-10T17:04:10.742Z,95580.41
2023-12-10T17:06:37.421Z,95592.47
2023-12-10T17:09:04.576Z,95596.66
2023-12-10T17:11:31.689Z,95596.09
2023-12-10T17:13:58.545Z,95598.16
2023-12-10T17:16:25.620Z,95581.88
2023-12-10T17:18:52.466Z,95583.72
2023-12-10T17:21:19.276Z,95592.56
2023-12-10T17:23:45.878Z,95602.19
2023-12-10T17:26:12.622Z,95591.72
2023-12-10T17:28:39.376Z,95578.34
2023-12-10T17:31:10.117Z,95563.91
2023-12-10T17:33:37.040Z,95555.25
2023-12-10T17:36:03.999Z,95563.09
2023-12-10T17:38:30.684Z,95569.84
2023-12-10T17:40:57.230Z,95561.72
2023-12-10T17:43:23.797Z,95546.25
2023-12-10T17:45:50.932Z,95537.09
2023-12-10T17:48:17.815Z,95551.47
2023-12-10T17:50:44.496Z,95539.38
2023-12-10T17:53:11.572Z,95535.97
2023-12-10T17:55:38.491Z,95532.78
2023-12-10T17:58:05.140Z,95528.28
2023-12-10T18:00:32.099Z,95524.84
2023-12-10T18:02:58.989Z,95524.28
2023-12-10T18:05:25.596Z,95530.53
2023-12-10T18:07:52.431Z,95530.78
2023-12-10T18:10:19.113Z,95512.72
2023-12-10T18:12:45.742Z,95509.31
2023-12-10T18:15:13.509Z,95501.75
2023-12-10T18:17:40.269Z,95491.31
2023-12-10T18:20:07.282Z,95487.88
2023-12-10T18:22:33.926Z,95485.25
2023-12-10T18:25:00.559Z,95479.00
2023-12-10T18:27:27.368Z,95478.44
2023-12-10T18:29:54.182Z,95467.72
2023-12-10T18:32:20.734Z,95468.47
2023-12-10T18:34:48.212Z,95461.97
2023-12-10T18:37:15.420Z,95461.44
2023-12-10T18:39:43.390Z,95454.13
2023-12-10T18:42:11.708Z,95455.69
2023-12-10T18:44:38.592Z,95445.78
2023-12-10T18:47:05.174Z,95439.78
2023-12-10T18:49:31.767Z,95445.34
2023-12-10T18:51:58.483Z,95437.53
2023-12-10T18:54:28.143Z,95435.47
2023-12-10T18:56:56.268Z,95422.91
2023-12-10T18:59:22.927Z,95415.84
2023-12-10T19:01:49.774Z,95420.13
2023-12-10T19:04:17.095Z,95407.56
2023-12-10T19:06:43.818Z,95400.81
2023-12-10T19:09:10.386Z,95397.44
2023-12-10T19:11:36.979Z,95379.69
2023-12-10T19:14:03.722Z,95366.09
2023-12-10T19:16:30.299Z,95369.28
2023-12-10T19:18:58.202Z,95355.44
2023-12-10T19:21:24.998Z,95349.69
2023-12-10T19:23:51.708Z,95338.94
2023-12-10T19:26:18.359Z,95344.94
2023-12-10T19:28:46.193Z,95336.84
2023-12-10T19:31:12.921Z,95326.09
2023-12-10T19:33:40.324Z,95319.28
2023-12-10T19:36:14.862Z,95305.75
2023-12-10T19:38:41.387Z,95299.69
2023-12-10T19:41:08.068Z,95295.53
2023-12-10T19:43:34.569Z,95280.84
2023-12-10T19:46:01.254Z,95287.13
2023-12-10T19:48:28.550Z,95273.00
2023-12-10T19:50:55.536Z,95266.44
2023-12-10T19:53:22.747Z,95269.53
2023-12-10T19:55:51.572Z,95269.50
2023-12-10T19:58:18.385Z,95264.00
2023-12-10T20:00:46.898Z,95261.16
2023-12-10T20:03:13.725Z,95256.41
2023-12-10T20:05:40.467Z,95240.50
2023-12-10T20:08:08.100Z,95239.72
2023-12-10T20:10:34.608Z,95234.25
2023-12-10T20:13:01.647Z,95229.84
2023-12-10T20:15:28.254Z,95224.09
2023-12-10T20:17:55.055Z,95220.25
2023-12-10T20:20:21.831Z,95215.59
2023-12-10T20:22:48.390Z,95215.88
2023-12-10T20:25:19.341Z,95216.41
2023-12-10T20:27:50.826Z,95207.75
2023-12-10T20:30:21.232Z,95212.72
2023-12-10T20:32:49.766Z,95194.69
2023-12-10T20:35:16.527Z,95197.09
2023-12-10T20:37:45.500Z,95191.06
2023-12-10T20:40:13.724Z,95198.66
2023-12-10T20:42:40.359Z,95202.59
2023-12-10T20:45:08.279Z,95197.91
2023-12-10T20:47:34.928Z,95190.31
2023-12-10T20:50:01.512Z,95192.69
2023-12-10T20:52:28.115Z,95178.06
2023-12-10T20:54:54.690Z,95183.34
2023-12-10T20:57:21.705Z,95180.22
2023-12-10T20:59:48.325Z,95171.63
2023-12-10T21:02:15.008Z,95177.38
2023-12-10T21:04:44.477Z,95186.28
2023-12-10T21:07:11.435Z,95187.09
2023-12-10T21:09:38.227Z,95216.34
2023-12-10T21:12:05.803Z,95195.94
2023-12-10T21:14:32.449Z,95202.22
2023-12-10T21:16:59.559Z,95192.81
2023-12-10T21:19:26.664Z,95180.53
2023-12-10T21:21:53.376Z,95165.38
2023-12-10T21:24:20.005Z,95153.63
2023-12-10T21:26:46.539Z,95152.06
2023-12-10T21:29:13.192Z,95141.34
2023-12-10T21:31:39.876Z,95126.19
2023-12-10T21:34:06.693Z,95101.09
2023-12-10T21:36:34.068Z,95087.47
2023-12-10T21:39:00.729Z,95075.94
2023-12-10T21:41:27.804Z,95073.53
2023-12-10T21:43:55.237Z,95065.16
2023-12-10T21:46:22.205Z,95069.28
2023-12-10T21:48:49.813Z,95059.09
2023-12-10T21:51:16.465Z,95057.81
2023-12-10T21:53:42.981Z,95051.81
2023-12-10T21:56:10.257Z,95045.78
2023-12-10T21:58:44.049Z,95038.47
2023-12-10T22:01:11.746Z,95032.44
2023-12-10T22:03:38.407Z,95023.28
2023-12-10T22:06:05.134Z,95014.38
2023-12-10T22:08:31.816Z,94990.34
2023-12-10T22:10:58.533Z,94992.44
2023-12-10T22:13:25.665Z,94988.25
2023-12-10T22:15:52.256Z,94996.88
2023-12-10T22:18:19.001Z,94997.41
2023-12-10T22:20:46.491Z,94990.38
2023-12-10T22:23:13.049Z,94994.56
2023-12-10T22:25:39.595Z,94993.53
2023-12-10T22:28:06.119Z,94991.22
2023-12-10T22:30:32.695Z,94986.53
2023-12-10T22:32:59.907Z,94982.09
2023-12-10T22:35:27.268Z,94978.75
2023-12-10T22:37:54.669Z,94973.25
2023-12-10T22:40:22.029Z,94965.97
2023-12-10T22:42:49.775Z,94971.72
2023-12-10T22:45:16.320Z,94968.03
2023-12-10T22:47:43.012Z,94967.78
2023-12-10T22:50:09.769Z,94974.31
2023-12-10T22:52:36.472Z,94987.13
2023-12-10T22:55:03.165Z,94994.72
2023-12-10T22:57:30.026Z,95009.84
2023-12-10T22:59:56.765Z,95007.50
2023-12-10T23:02:23.553Z,94992.81
2023-12-10T23:04:50.497Z,95004.03
2023-12-10T23:07:17.262Z,95008.72
2023-12-10T23:09:43.835Z,95017.06
2023-12-10T23:12:10.357Z,95016.81
2023-12-10T23:14:38.487Z,95015.22
2023-12-10T23:17:05.127Z,95020.41
2023-12-10T23:19:31.731Z,95013.91
2023-12-10T23:21:58.345Z,95010.72
2023-12-10T23:24:24.898Z,95003.91
2023-12-10T23:26:51.437Z,94991.34
2023-12-10T23:29:17.949Z,94995.00
2023-12-10T23:31:45.173Z,94987.69
2023-12-10T23:34:11.762Z,94984.81
2023-12-10T23:36:38.376Z,94990.84
2023-12-10T23:39:05.386Z,94991.59
2023-12-10T23:41:37.673Z,94989.47
2023-12-10T23:44:06.973Z,94988.16
2023-12-10T23:46:34.059Z,94998.59
2023-12-10T23:49:00.909Z,94987.53
2023-12-10T23:51:27.896Z,94998.00
2023-12-10T23:53:54.434Z,94998.00
2023-12-10T23:56:20.928Z,94990.22
2023-12-10T23:58:47.460Z,94998.59
